Ulysses, Kentucky
Current Conditions -  °F | °C
As of 4:55 PM on Thursday 27 Nov 2014 (Local Time) from KSJS Reporting Station
Light Snow Light Snow  
Wind Chill: 26°   Ceiling: 2500
Heat Index: 31°   Visibility: 5mi
Dew Point: 24°   Wind: 5mph
Humidity: 75%   Direction: 280°W
Pressure: 30.29"   Gusts: NA
Location:  37.95°N, 82.67°W
Report Text: KSJS 272155Z AUTO 28004KT 5SM -SN OVC025 00/M04 A3029 RMK AO2 T10051044
Loading
Personal Weather Stations






























Interactive Weather Map New forecast layout! Learn more

10-Day Weather Forecast

Advertisements
Track Severe Weather on mobile